Time;durP1;ratioP1;P1;durP2;ratioP2;P2;SDS_P1;SDS_P2;PMS_P1;PMS_P2;Temp;Humidity;BMP_temperature;BMP_pressure;BME280_temperature;BME280_humidity;BME280_pressure;Samples;Min_cycle;Max_cycle;Signal;HPM_P1;HPM_P2
2022/10/01 00:01:09;;;;;;;17.00;7.32;;;;;;;6.53;100.00;98476.84;5036914;28;20312;-75
2022/10/01 00:03:35;;;;;;;17.02;7.13;;;;;;;6.58;100.00;98491.38;5040867;28;20501;-76
2022/10/01 00:06:10;;;;;;;14.95;6.95;;;;;;;6.43;100.00;98476.28;5031168;28;20478;-75
2022/10/01 00:08:37;;;;;;;11.35;6.20;;;;;;;6.45;100.00;98485.00;5028876;28;20383;-75
2022/10/01 00:11:12;;;;;;;14.50;6.78;;;;;;;6.34;100.00;98460.25;5037701;28;20645;-76
2022/10/01 00:13:38;;;;;;;14.70;7.15;;;;;;;6.36;100.00;98477.00;5037947;28;20108;-76
2022/10/01 00:16:08;;;;;;;10.38;6.07;;;;;;;6.39;100.00;98454.28;5029935;28;20068;-77
2022/10/01 00:18:36;;;;;;;11.65;6.47;;;;;;;6.56;100.00;98481.84;5030326;28;21377;-76
2022/10/01 00:21:08;;;;;;;10.50;6.28;;;;;;;6.35;100.00;98444.97;5032845;28;20026;-76
2022/10/01 00:23:34;;;;;;;13.20;6.70;;;;;;;6.43;100.00;98458.28;5026194;28;20057;-75
2022/10/01 00:26:16;;;;;;;13.05;7.15;;;;;;;6.65;100.00;98483.41;5030907;28;20056;-76
2022/10/01 00:28:45;;;;;;;17.02;7.22;;;;;;;6.68;100.00;98458.00;5029462;28;20438;-77
2022/10/01 00:31:11;;;;;;;10.75;6.68;;;;;;;6.76;100.00;98439.94;5024662;28;20029;-77
2022/10/01 00:33:37;;;;;;;12.10;6.40;;;;;;;6.87;100.00;98460.13;5029107;28;20056;-77
2022/10/01 00:36:08;;;;;;;15.23;7.25;;;;;;;6.86;100.00;98468.38;5026303;28;20090;-76
2022/10/01 00:38:35;;;;;;;13.80;7.05;;;;;;;6.84;100.00;98473.09;5031334;28;20013;-77
2022/10/01 00:41:01;;;;;;;13.23;7.07;;;;;;;6.73;100.00;98445.69;5031218;28;20033;-76
2022/10/01 00:43:30;;;;;;;12.90;7.15;;;;;;;6.91;100.00;98464.09;5031289;28;20021;-74
2022/10/01 00:46:04;;;;;;;18.38;6.90;;;;;;;6.86;100.00;98454.91;5022842;28;20029;-75
2022/10/01 00:48:37;;;;;;;10.45;6.03;;;;;;;6.87;100.00;98451.22;5015137;28;20080;-75
2022/10/01 00:51:03;;;;;;;12.05;6.03;;;;;;;7.05;100.00;98464.25;5024736;28;20084;-75
2022/10/01 00:53:28;;;;;;;10.93;6.68;;;;;;;6.94;100.00;98454.81;5029539;28;20035;-76
2022/10/01 00:55:57;;;;;;;10.25;5.90;;;;;;;7.02;100.00;98470.81;5031571;28;20063;-75
2022/10/01 00:58:24;;;;;;;10.77;6.35;;;;;;;6.71;100.00;98425.38;5030899;28;20060;-75
2022/10/01 01:00:50;;;;;;;10.95;5.90;;;;;;;7.14;100.00;98479.25;5024116;28;20095;-75
2022/10/01 01:03:16;;;;;;;9.55;5.65;;;;;;;7.12;100.00;98482.13;5022309;28;20095;-75
2022/10/01 01:05:42;;;;;;;12.45;5.60;;;;;;;6.99;100.00;98482.78;5018417;28;20450;-75
2022/10/01 01:08:09;;;;;;;11.38;5.85;;;;;;;6.76;100.00;98445.31;5025097;28;20053;-75
2022/10/01 01:10:34;;;;;;;11.45;6.20;;;;;;;6.87;100.00;98472.75;5031526;28;20140;-75
2022/10/01 01:13:11;;;;;;;8.75;5.57;;;;;;;6.77;100.00;98476.53;5034442;28;20109;-75
2022/10/01 01:15:56;;;;;;;8.18;5.32;;;;;;;6.60;100.00;98450.88;5027573;28;20129;-75
2022/10/01 01:18:51;;;;;;;10.90;5.70;;;;;;;6.87;100.00;98478.13;5014544;28;20060;-75
2022/10/01 01:21:35;;;;;;;10.18;5.93;;;;;;;6.86;100.00;98466.50;5028536;28;20032;-75
2022/10/01 01:24:03;;;;;;;13.27;6.80;;;;;;;6.99;100.00;98471.22;5020227;28;20045;-76
2022/10/01 01:26:34;;;;;;;11.15;5.93;;;;;;;7.07;100.00;98470.28;5031497;28;20029;-75
2022/10/01 01:29:06;;;;;;;9.00;5.80;;;;;;;7.08;100.00;98461.19;5024571;28;20029;-75
2022/10/01 01:31:38;;;;;;;10.27;5.63;;;;;;;7.14;100.00;98453.19;5020502;28;20386;-75
2022/10/01 01:34:11;;;;;;;9.85;6.20;;;;;;;7.20;100.00;98436.31;5027910;28;20025;-75
2022/10/01 01:36:41;;;;;;;8.88;5.50;;;;;;;7.14;100.00;98410.13;5029638;28;20049;-76
2022/10/01 01:39:10;;;;;;;11.95;5.57;;;;;;;7.31;100.00;98423.34;5030930;28;20023;-75
2022/10/01 01:41:42;;;;;;;9.35;5.25;;;;;;;7.09;100.00;98364.16;5034997;28;20083;-75
2022/10/01 01:44:11;;;;;;;13.43;5.65;;;;;;;7.58;100.00;98421.75;5029782;28;20049;-75
2022/10/01 01:46:42;;;;;;;8.55;5.50;;;;;;;7.39;100.00;98385.56;5028894;28;20035;-75
2022/10/01 01:49:08;;;;;;;8.30;5.03;;;;;;;7.35;100.00;98371.63;5028671;28;20487;-75
2022/10/01 01:52:03;;;;;;;8.98;5.38;;;;;;;7.77;100.00;98420.25;5029383;28;20056;-75
2022/10/01 01:54:29;;;;;;;7.22;4.90;;;;;;;7.77;100.00;98409.47;5015837;28;20033;-78
2022/10/01 01:56:57;;;;;;;8.40;5.18;;;;;;;7.72;100.00;98382.31;5028721;28;20029;-78
2022/10/01 01:59:24;;;;;;;9.57;4.82;;;;;;;7.76;100.00;98405.13;5026528;28;20724;-77
2022/10/01 02:01:50;;;;;;;11.02;5.10;;;;;;;7.60;100.00;98361.31;5029195;28;20052;-78
2022/10/01 02:04:26;;;;;;;8.07;4.90;;;;;;;7.86;100.00;98398.38;5033732;28;20036;-76
2022/10/01 02:07:07;;;;;;;8.18;4.32;;;;;;;7.89;100.00;98389.06;5030534;28;20422;-75
2022/10/01 02:09:47;;;;;;;8.65;5.30;;;;;;;7.99;100.00;98388.69;5027247;28;20025;-76
2022/10/01 02:12:36;;;;;;;8.20;4.72;;;;;;;7.85;100.00;98374.31;5025028;28;20056;-75
2022/10/01 02:15:12;;;;;;;7.72;4.30;;;;;;;7.98;100.00;98390.56;5024515;28;20042;-76
2022/10/01 02:17:56;;;;;;;8.23;4.90;;;;;;;8.03;100.00;98390.81;5020844;28;20037;-75
2022/10/01 02:20:30;;;;;;;6.75;4.60;;;;;;;7.93;100.00;98392.19;5018253;28;20021;-75
2022/10/01 02:23:02;;;;;;;9.82;4.93;;;;;;;7.75;100.00;98376.53;5016119;28;20052;-76
2022/10/01 02:25:33;;;;;;;6.53;4.68;;;;;;;7.84;100.00;98402.28;5020793;28;20636;-75
2022/10/01 02:28:12;;;;;;;9.00;5.10;;;;;;;7.85;100.00;98398.56;5024651;28;20121;-75
2022/10/01 02:30:40;;;;;;;;;;;;;;;7.87;100.00;98396.50;5022884;28;20694;-75
2022/10/01 02:33:08;;;;;;;12.23;4.50;;;;;;;7.86;100.00;98393.00;5024821;28;20418;-75
2022/10/01 02:35:36;;;;;;;9.43;4.78;;;;;;;7.89;100.00;98392.59;5024711;28;20017;-75
2022/10/01 02:38:05;;;;;;;7.30;4.47;;;;;;;7.46;100.00;98316.44;5019246;28;20026;-75
2022/10/01 02:40:34;;;;;;;5.82;4.00;;;;;;;7.92;100.00;98374.38;5021980;28;20491;-75
2022/10/01 02:43:07;;;;;;;6.60;4.05;;;;;;;7.64;100.00;98308.72;5032669;28;20619;-76
2022/10/01 02:45:39;;;;;;;11.98;4.60;;;;;;;8.00;100.00;98360.75;5035928;28;20551;-76
2022/10/01 02:48:08;;;;;;;6.57;4.18;;;;;;;7.92;100.00;98345.56;5035973;28;20041;-78
2022/10/01 02:50:43;;;;;;;5.65;3.80;;;;;;;7.96;100.00;98348.69;5028502;28;20057;-76
2022/10/01 02:53:23;;;;;;;7.07;4.25;;;;;;;8.24;100.00;98365.66;5026966;28;20565;-76
2022/10/01 02:55:50;;;;;;;7.57;3.60;;;;;;;7.97;100.00;98323.44;5042724;28;20035;-76
2022/10/01 02:58:17;;;;;;;5.57;3.35;;;;;;;8.28;100.00;98368.78;5028957;28;20491;-75
2022/10/01 03:00:42;;;;;;;5.53;3.75;;;;;;;8.09;100.00;98336.13;5037608;28;20433;-75
2022/10/01 03:03:07;;;;;;;5.28;3.85;;;;;;;8.16;100.00;98343.44;5029060;28;20033;-76
2022/10/01 03:05:33;;;;;;;4.82;3.42;;;;;;;8.13;100.00;98350.88;5025982;28;20068;-76
2022/10/01 03:07:58;;;;;;;6.45;3.55;;;;;;;8.28;100.00;98368.78;5025670;28;20383;-77
2022/10/01 03:10:23;;;;;;;6.90;3.70;;;;;;;8.12;100.00;98353.75;5027785;28;20437;-76
2022/10/01 03:12:49;;;;;;;5.60;3.75;;;;;;;8.10;100.00;98345.06;5039145;28;20025;-76
2022/10/01 03:15:18;;;;;;;13.40;3.85;;;;;;;8.28;100.00;98374.19;5051304;28;20037;-76
2022/10/01 03:17:43;;;;;;;6.03;3.35;;;;;;;8.27;100.00;98362.56;5042537;28;20487;-77
2022/10/01 03:20:09;;;;;;;5.65;3.30;;;;;;;8.31;100.00;98352.22;5032961;28;20041;-75
2022/10/01 03:22:35;;;;;;;6.53;3.50;;;;;;;8.24;100.00;98324.41;5027330;28;20025;-76
2022/10/01 03:25:00;;;;;;;6.75;3.30;;;;;;;8.21;100.00;98297.84;5036382;28;20034;-78
2022/10/01 03:27:26;;;;;;;5.63;3.50;;;;;;;8.20;100.00;98307.81;5033069;28;20029;-77
2022/10/01 03:29:51;;;;;;;8.38;3.13;;;;;;;8.39;100.00;98340.44;5035481;28;20525;-75
2022/10/01 03:32:17;;;;;;;5.75;3.30;;;;;;;8.34;100.00;98335.66;5029932;28;20021;-75
2022/10/01 03:34:42;;;;;;;4.97;3.42;;;;;;;8.49;100.00;98346.31;5027589;28;20033;-75
2022/10/01 03:37:08;;;;;;;5.15;3.03;;;;;;;8.16;100.00;98295.75;5029635;28;20577;-76
2022/10/01 03:39:33;;;;;;;4.63;3.45;;;;;;;8.35;100.00;98330.03;5024645;28;20029;-76
2022/10/01 03:41:59;;;;;;;5.32;3.58;;;;;;;8.47;100.00;98337.59;5027064;28;20033;-74
2022/10/01 03:44:26;;;;;;;5.03;3.10;;;;;;;8.52;100.00;98348.63;5024622;28;20026;-76
2022/10/01 03:46:52;;;;;;;5.10;3.30;;;;;;;8.44;100.00;98330.75;5037174;28;20483;-75
2022/10/01 03:49:17;;;;;;;6.07;3.15;;;;;;;8.29;100.00;98319.25;5029292;28;20036;-74
2022/10/01 03:51:44;;;;;;;6.90;3.95;;;;;;;8.34;100.00;98324.88;5017701;28;20030;-76
2022/10/01 03:54:09;;;;;;;6.78;3.08;;;;;;;8.25;100.00;98317.97;5031828;28;20029;-77
2022/10/01 03:56:35;;;;;;;4.85;2.67;;;;;;;8.17;100.00;98301.97;5032234;28;20534;-77
2022/10/01 03:59:01;;;;;;;4.45;2.78;;;;;;;8.44;100.00;98325.34;5028775;28;20021;-76
2022/10/01 04:01:27;;;;;;;6.28;2.90;;;;;;;8.45;100.00;98337.78;5029373;28;20033;-77
2022/10/01 04:03:52;;;;;;;4.65;2.65;;;;;;;8.23;100.00;98290.41;5036412;28;20095;-77
2022/10/01 04:06:18;;;;;;;4.40;2.50;;;;;;;8.34;100.00;98304.13;5029690;28;20035;-78
2022/10/01 04:08:43;;;;;;;4.38;2.60;;;;;;;8.50;100.00;98318.31;5041418;28;20068;-76
2022/10/01 04:11:09;;;;;;;7.68;2.50;;;;;;;8.53;100.00;98324.13;5031486;28;20041;-78
2022/10/01 04:13:35;;;;;;;3.35;2.47;;;;;;;8.31;100.00;98280.28;5040724;28;20056;-80
2022/10/01 04:16:02;;;;;;;4.25;2.60;;;;;;;8.51;100.00;98303.78;5035370;28;20395;-76
2022/10/01 04:18:27;;;;;;;3.97;2.28;;;;;;;8.66;100.00;98317.13;5031395;28;20491;-75
2022/10/01 04:20:53;;;;;;;7.70;2.70;;;;;;;8.33;100.00;98266.59;5034811;28;20037;-76
2022/10/01 04:23:18;;;;;;;4.22;2.72;;;;;;;8.51;100.00;98285.78;5032727;28;20033;-74
2022/10/01 04:25:44;;;;;;;3.65;2.20;;;;;;;8.60;100.00;98308.00;5031656;28;20045;-75
2022/10/01 04:28:11;;;;;;;4.75;2.00;;;;;;;8.68;100.00;98313.19;5037260;28;20025;-75
2022/10/01 04:30:39;;;;;;;3.80;2.30;;;;;;;8.72;100.00;98316.31;5031977;28;20029;-75
2022/10/01 04:33:06;;;;;;;4.50;2.47;;;;;;;8.74;100.00;98319.63;5036151;28;20395;-76
2022/10/01 04:35:32;;;;;;;3.22;2.08;;;;;;;8.76;100.00;98306.78;5026998;28;20025;-75
2022/10/01 04:38:03;;;;;;;5.30;2.28;;;;;;;8.77;100.00;98305.72;5032691;28;20036;-76
2022/10/01 04:40:30;;;;;;;2.72;1.70;;;;;;;8.73;100.00;98294.53;5026924;28;20012;-78
2022/10/01 04:42:55;;;;;;;3.92;2.20;;;;;;;8.63;100.00;98274.41;5025170;28;20080;-75
2022/10/01 04:45:21;;;;;;;5.05;1.80;;;;;;;8.96;100.00;98296.88;5038001;28;20029;-76
2022/10/01 04:47:50;;;;;;;3.85;2.03;;;;;;;8.83;100.00;98275.28;5052075;28;20044;-76
2022/10/01 04:50:17;;;;;;;2.63;1.63;;;;;;;8.97;100.00;98279.63;5033746;28;20533;-73
2022/10/01 04:52:42;;;;;;;1.92;1.48;;;;;;;9.15;100.00;98294.41;5027401;28;20081;-70
2022/10/01 04:55:08;;;;;;;2.47;1.70;;;;;;;9.07;100.00;98281.09;5019185;28;20045;-70
2022/10/01 04:57:36;;;;;;;3.60;2.08;;;;;;;9.00;100.00;98276.50;5021187;28;20026;-79
2022/10/01 05:00:03;;;;;;;4.78;1.73;;;;;;;9.02;100.00;98289.00;5039856;28;20052;-81
2022/10/01 05:02:28;;;;;;;5.78;2.15;;;;;;;9.04;100.00;98285.06;5033706;28;20053;-76
2022/10/01 05:04:54;;;;;;;4.10;2.10;;;;;;;9.13;100.00;98285.66;5022116;28;20505;-71
2022/10/01 05:07:21;;;;;;;5.93;2.30;;;;;;;9.15;100.00;98279.03;5026444;28;20337;-71
2022/10/01 05:09:47;;;;;;;5.15;2.25;;;;;;;9.25;100.00;98285.88;5028231;28;20036;-70
2022/10/01 05:12:12;;;;;;;5.25;2.13;;;;;;;9.23;100.00;98285.25;5026657;28;20042;-71
2022/10/01 05:14:37;;;;;;;6.35;2.55;;;;;;;9.28;100.00;98290.88;5029701;28;20080;-75
2022/10/01 05:17:04;;;;;;;3.47;2.30;;;;;;;9.39;100.00;98296.47;5026502;28;20493;-78
2022/10/01 05:19:29;;;;;;;3.60;2.33;;;;;;;9.30;100.00;98268.03;5027740;28;20029;-77
2022/10/01 05:21:55;;;;;;;4.35;2.40;;;;;;;9.29;100.00;98260.13;5031831;28;20021;-78
2022/10/01 05:24:20;;;;;;;4.93;2.20;;;;;;;9.22;100.00;98238.53;5034900;28;20056;-78
2022/10/01 05:26:45;;;;;;;2.92;1.95;;;;;;;9.41;100.00;98269.28;5039056;28;20061;-77
2022/10/01 05:29:14;;;;;;;3.95;2.10;;;;;;;9.25;100.00;98235.44;5051463;28;20032;-77
2022/10/01 05:31:42;;;;;;;2.40;1.80;;;;;;;9.37;100.00;98255.34;5031887;28;20108;-78
2022/10/01 05:34:08;;;;;;;4.35;1.60;;;;;;;9.23;100.00;98221.31;5033607;28;20025;-80
2022/10/01 05:36:33;;;;;;;3.47;1.90;;;;;;;9.70;100.00;98275.25;5025300;28;20025;-75
2022/10/01 05:38:58;;;;;;;5.65;1.90;;;;;;;9.68;100.00;98280.03;5031108;28;20026;-76
2022/10/01 05:41:24;;;;;;;3.53;1.88;;;;;;;9.29;100.00;98212.38;5031757;28;20025;-72
2022/10/01 05:43:50;;;;;;;2.97;1.60;;;;;;;9.56;100.00;98260.94;5044276;28;20044;-73
2022/10/01 05:46:15;;;;;;;3.25;1.50;;;;;;;9.53;100.00;98264.88;5046447;28;20681;-74
2022/10/01 05:48:41;;;;;;;5.18;1.70;;;;;;;9.57;100.00;98273.41;5034498;28;20037;-79
2022/10/01 05:51:07;;;;;;;7.85;3.05;;;;;;;9.51;100.00;98261.56;5050507;28;20505;-73
2022/10/01 05:53:36;;;;;;;15.68;5.70;;;;;;;9.61;100.00;98266.53;5039814;28;20028;-73
2022/10/01 05:56:05;;;;;;;11.88;5.07;;;;;;;9.46;100.00;98255.97;5032637;28;20025;-74
2022/10/01 05:58:32;;;;;;;101.30;10.60;;;;;;;9.52;100.00;98270.50;5035053;28;20035;-74
2022/10/01 06:00:57;;;;;;;6.10;2.85;;;;;;;9.21;100.00;98253.91;5032940;28;20025;-74
2022/10/01 06:03:25;;;;;;;49.38;4.63;;;;;;;8.98;100.00;98230.03;5032376;28;20391;-74
2022/10/01 06:05:52;;;;;;;6.30;1.77;;;;;;;9.02;100.00;98256.59;5029676;28;20026;-75
2022/10/01 06:08:17;;;;;;;19.10;2.25;;;;;;;8.74;100.00;98209.88;5033947;28;20059;-73
2022/10/01 06:10:42;;;;;;;5.05;1.77;;;;;;;8.87;100.00;98251.41;5030622;28;20107;-73
2022/10/01 06:13:08;;;;;;;12.48;2.28;;;;;;;8.79;100.00;98230.84;5033043;28;20105;-74
2022/10/01 06:15:37;;;;;;;5.28;1.55;;;;;;;8.77;100.00;98232.91;5034793;28;20045;-75
2022/10/01 06:18:04;;;;;;;4.75;1.45;;;;;;;8.71;100.00;98237.25;5026406;28;20022;-74
2022/10/01 06:20:29;;;;;;;4.90;2.13;;;;;;;8.67;100.00;98238.72;5032319;28;20075;-74
2022/10/01 06:22:56;;;;;;;8.95;1.80;;;;;;;8.70;100.00;98254.50;5037398;28;20056;-73
2022/10/01 06:25:22;;;;;;;2.60;1.42;;;;;;;8.64;100.00;98241.00;5034689;28;20018;-73
2022/10/01 06:27:54;;;;;;;36.75;3.72;;;;;;;8.66;100.00;98252.41;5029095;28;20673;-74
2022/10/01 06:30:19;;;;;;;4.32;1.77;;;;;;;8.67;100.00;98237.88;5025871;28;20032;-73
2022/10/01 06:32:45;;;;;;;2.70;1.75;;;;;;;8.62;100.00;98224.19;5036577;28;20418;-74
2022/10/01 06:35:11;;;;;;;2.90;1.58;;;;;;;8.63;100.00;98248.25;5043629;28;20047;-74
2022/10/01 06:37:37;;;;;;;4.50;1.80;;;;;;;8.69;100.00;98247.41;5028536;28;20410;-73
2022/10/01 06:40:03;;;;;;;3.97;1.58;;;;;;;8.61;100.00;98212.56;5028637;28;20582;-74
2022/10/01 06:42:28;;;;;;;4.57;1.40;;;;;;;8.77;100.00;98232.91;5022708;28;20116;-73
2022/10/01 06:44:53;;;;;;;11.20;2.05;;;;;;;8.73;100.00;98210.09;5027591;28;20022;-74
2022/10/01 06:47:19;;;;;;;56.42;6.75;;;;;;;8.67;100.00;98200.13;5026624;28;20411;-73
2022/10/01 06:49:44;;;;;;;7.22;1.70;;;;;;;8.82;100.00;98202.63;5024723;28;20036;-74
2022/10/01 06:54:54;;;;;;;32.22;4.53;;;;;;;8.88;100.00;98220.69;5028192;28;20071;-73
2022/10/01 06:57:19;;;;;;;4.07;1.50;;;;;;;8.82;100.00;98216.94;5017773;28;20045;-73
2022/10/01 06:59:44;;;;;;;2.15;1.48;;;;;;;8.89;100.00;98236.66;5011656;28;20041;-74
2022/10/01 07:02:20;;;;;;;19.48;2.88;;;;;;;9.03;100.00;98255.56;5022308;28;20096;-73
2022/10/01 07:04:46;;;;;;;1.83;1.20;;;;;;;8.83;100.00;98205.13;5028504;28;20479;-73
2022/10/01 07:07:12;;;;;;;2.63;1.60;;;;;;;8.80;100.00;98210.91;5033808;28;20036;-76
2022/10/01 07:09:37;;;;;;;6.38;1.40;;;;;;;8.85;100.00;98218.41;5042487;28;20033;-75
2022/10/01 07:12:03;;;;;;;2.47;1.10;;;;;;;8.83;100.00;98210.53;5034895;28;20403;-71
2022/10/01 07:14:29;;;;;;;5.70;1.52;;;;;;;8.85;100.00;98224.63;5040660;28;20028;-75
2022/10/01 07:16:54;;;;;;;3.28;1.50;;;;;;;8.91;100.00;98233.78;5042225;28;20093;-74
2022/10/01 07:19:19;;;;;;;5.05;1.67;;;;;;;8.84;100.00;98222.16;5029590;28;20290;-75
2022/10/01 07:21:47;;;;;;;2.92;1.33;;;;;;;8.94;100.00;98228.78;5034401;28;20494;-75
2022/10/01 07:24:13;;;;;;;3.15;1.48;;;;;;;8.91;100.00;98217.59;5032792;28;20032;-76
2022/10/01 07:26:38;;;;;;;4.35;1.33;;;;;;;8.70;100.00;98189.78;5040278;28;20479;-75
2022/10/01 07:29:05;;;;;;;2.20;0.90;;;;;;;8.78;100.00;98196.84;5047545;28;20037;-77
2022/10/01 07:31:32;;;;;;;5.97;1.13;;;;;;;8.64;100.00;98189.75;5044420;28;20167;-78
2022/10/01 07:33:58;;;;;;;1.52;1.10;;;;;;;8.70;100.00;98207.81;5044218;28;20026;-77
2022/10/01 07:36:23;;;;;;;2.35;1.40;;;;;;;8.60;100.00;98204.69;5035101;28;20017;-76
2022/10/01 07:38:50;;;;;;;3.17;1.60;;;;;;;8.54;100.00;98204.47;5044179;28;20044;-75
2022/10/01 07:41:16;;;;;;;1.88;1.20;;;;;;;8.74;100.00;98225.25;5048004;28;20021;-76
2022/10/01 07:43:42;;;;;;;3.88;1.35;;;;;;;8.70;100.00;98226.69;5033455;28;20569;-77
2022/10/01 07:46:08;;;;;;;2.70;1.55;;;;;;;8.50;100.00;98195.13;5048138;28;20033;-80
2022/10/01 07:48:34;;;;;;;2.30;1.45;;;;;;;8.66;100.00;98225.44;5037303;28;20783;-73
2022/10/01 07:50:59;;;;;;;2.50;1.60;;;;;;;8.59;100.00;98221.91;5027513;28;20112;-76
2022/10/01 07:53:24;;;;;;;3.53;1.60;;;;;;;8.44;100.00;98212.13;5037787;28;20021;-76
2022/10/01 07:55:50;;;;;;;4.93;1.95;;;;;;;8.54;100.00;98228.75;5029908;28;20665;-75
2022/10/01 07:58:16;;;;;;;2.88;1.75;;;;;;;8.48;100.00;98207.97;5037614;28;20467;-75
2022/10/01 08:00:42;;;;;;;4.68;1.73;;;;;;;8.49;100.00;98208.84;5032358;28;20033;-75
2022/10/01 08:03:10;;;;;;;2.97;1.55;;;;;;;8.74;100.00;98238.72;5027357;28;20024;-75
2022/10/01 08:05:38;;;;;;;2.75;1.25;;;;;;;8.69;100.00;98235.81;5022374;28;20060;-74
2022/10/01 08:08:07;;;;;;;3.25;1.67;;;;;;;8.66;100.00;98225.44;5031514;28;20052;-73
2022/10/01 08:10:35;;;;;;;3.92;1.85;;;;;;;8.64;100.00;98232.91;5026854;28;20029;-72
2022/10/01 08:13:13;;;;;;;4.57;1.67;;;;;;;8.72;100.00;98228.16;5035697;28;20038;-72
2022/10/01 08:15:40;;;;;;;8.75;1.95;;;;;;;8.68;100.00;98234.16;5031921;28;20095;-72
2022/10/01 08:18:06;;;;;;;3.60;2.20;;;;;;;8.76;100.00;98237.47;5032338;28;20025;-74
2022/10/01 08:20:31;;;;;;;3.10;1.73;;;;;;;8.69;100.00;98255.50;5028140;28;20655;-71
2022/10/01 08:23:05;;;;;;;4.22;1.70;;;;;;;8.77;100.00;98254.50;5019950;28;20425;-69
2022/10/01 08:25:31;;;;;;;3.05;1.88;;;;;;;8.77;100.00;98268.81;5011993;28;20112;-72
2022/10/01 08:27:56;;;;;;;9.32;1.90;;;;;;;8.78;100.00;98267.78;5020591;28;20076;-72
2022/10/01 08:30:22;;;;;;;3.28;2.28;;;;;;;8.73;100.00;98269.44;5020561;28;20368;-71
2022/10/01 08:32:47;;;;;;;5.80;2.20;;;;;;;8.80;100.00;98280.22;5022816;28;20040;-72
2022/10/01 08:35:13;;;;;;;4.80;1.80;;;;;;;8.84;100.00;98266.13;5022091;28;20091;-73
2022/10/01 08:37:38;;;;;;;4.07;1.60;;;;;;;8.84;100.00;98255.34;5020694;28;20045;-73
2022/10/01 08:40:04;;;;;;;4.20;2.08;;;;;;;8.68;100.00;98228.78;5022265;28;20068;-71
2022/10/01 08:42:38;;;;;;;4.78;2.13;;;;;;;8.92;100.00;98263.22;5030162;28;20180;-75
2022/10/01 08:45:11;;;;;;;5.75;2.53;;;;;;;8.85;100.00;98250.78;5028182;28;20029;-73
2022/10/01 08:47:50;;;;;;;6.55;2.03;;;;;;;8.94;100.00;98258.47;5025939;28;20558;-72
2022/10/01 08:51:01;;;;;;;2.90;2.10;;;;;;;8.61;100.00;98212.56;5023243;28;20032;-74
2022/10/01 08:53:42;;;;;;;3.55;2.00;;;;;;;8.96;100.00;98269.88;4998772;28;20037;-69
2022/10/01 08:56:21;;;;;;;3.95;2.08;;;;;;;8.98;100.00;98275.88;5030437;28;20086;-74
2022/10/01 08:58:53;;;;;;;5.00;2.20;;;;;;;8.86;100.00;98263.25;5023086;28;20026;-68
2022/10/01 09:01:19;;;;;;;3.80;1.95;;;;;;;9.00;100.00;98279.22;5028165;28;20025;-66
2022/10/01 09:03:45;;;;;;;4.15;2.25;;;;;;;9.00;100.00;98275.69;5027587;28;20040;-72
2022/10/01 09:06:18;;;;;;;3.35;2.35;;;;;;;9.03;100.00;98283.38;5027375;28;20487;-76
2022/10/01 09:09:08;;;;;;;3.58;2.17;;;;;;;9.00;100.00;98286.47;5028274;28;20033;-72
2022/10/01 09:11:58;;;;;;;3.45;2.13;;;;;;;8.97;100.00;98286.91;5022709;28;20399;-68
2022/10/01 09:14:29;;;;;;;4.00;2.40;;;;;;;9.03;100.00;98296.03;5028026;28;20112;-72
2022/10/01 09:17:43;;;;;;;4.70;2.60;;;;;;;9.13;100.00;98291.88;5033852;28;20033;-69
2022/10/01 09:20:24;;;;;;;6.75;2.85;;;;;;;9.24;100.00;98270.72;5010806;28;20041;-67
2022/10/01 09:23:13;;;;;;;3.58;2.03;;;;;;;9.41;100.00;98267.41;5025274;28;20049;-67
2022/10/01 09:25:41;;;;;;;3.97;1.98;;;;;;;9.47;100.00;98264.91;5032222;28;20041;-67
2022/10/01 09:28:33;;;;;;;3.35;2.10;;;;;;;9.41;100.00;98256.59;5026110;28;20372;-71
2022/10/01 09:31:05;;;;;;;3.58;1.95;;;;;;;9.44;100.00;98271.53;5017790;28;20042;-70
2022/10/01 09:33:34;;;;;;;3.80;1.65;;;;;;;9.43;100.00;98269.88;5028567;28;20044;-68
2022/10/01 09:36:03;;;;;;;3.15;1.70;;;;;;;9.38;100.00;98273.22;5039577;28;20025;-70
2022/10/01 09:38:39;;;;;;;4.88;1.95;;;;;;;9.38;100.00;98286.72;5025164;28;20443;-73
2022/10/01 09:41:09;;;;;;;2.63;1.73;;;;;;;9.42;100.00;98285.25;5027495;28;20033;-71
2022/10/01 09:43:40;;;;;;;4.93;2.67;;;;;;;9.38;100.00;98284.03;5023753;28;20025;-74
2022/10/01 09:46:12;;;;;;;4.70;2.17;;;;;;;9.32;100.00;98297.50;5023512;28;20033;-69
2022/10/01 09:48:51;;;;;;;5.57;1.90;;;;;;;9.47;100.00;98321.59;5022073;28;20862;-70
2022/10/01 09:51:45;;;;;;;3.47;2.00;;;;;;;9.41;100.00;98309.78;5030537;28;20025;-72
2022/10/01 09:54:30;;;;;;;3.97;2.60;;;;;;;9.41;100.00;98298.97;5019792;28;20125;-70
2022/10/01 09:57:07;;;;;;;5.30;2.13;;;;;;;9.44;100.00;98293.97;5020876;28;20451;-68
2022/10/01 09:59:36;;;;;;;5.72;2.42;;;;;;;9.40;100.00;98290.00;5022693;28;20137;-70
2022/10/01 10:02:03;;;;;;;;;;;;;;;9.43;100.00;98286.94;5029677;28;20112;-68
2022/10/01 10:04:30;;;;;;;2.03;1.52;;;;;;;9.42;100.00;98271.75;5021256;28;19939;-70
2022/10/01 10:07:01;;;;;;;3.85;1.98;;;;;;;9.49;100.00;98262.81;5026105;28;20087;-70
2022/10/01 10:09:30;;;;;;;2.42;1.60;;;;;;;9.60;100.00;98236.00;5023509;28;20040;-70
2022/10/01 10:11:58;;;;;;;3.75;1.67;;;;;;;9.58;100.00;98245.34;5022449;28;20660;-72
2022/10/01 10:14:43;;;;;;;1.85;1.27;;;;;;;9.71;100.00;98268.81;5022695;28;20652;-73
2022/10/01 10:17:15;;;;;;;2.40;1.23;;;;;;;9.62;100.00;98225.00;5027855;28;20387;-72
2022/10/01 10:19:48;;;;;;;2.58;1.35;;;;;;;9.80;100.00;98249.47;5024872;28;20120;-65
2022/10/01 10:22:24;;;;;;;2.17;1.30;;;;;;;9.69;100.00;98239.28;5019052;28;20021;-65
2022/10/01 10:24:52;;;;;;;2.38;1.15;;;;;;;9.88;100.00;98283.53;5025882;28;20060;-68
2022/10/01 10:27:25;;;;;;;4.72;1.60;;;;;;;9.91;100.00;98282.28;5023273;28;20025;-68
2022/10/01 10:30:01;;;;;;;4.63;2.00;;;;;;;9.95;100.00;98280.78;5030033;28;20021;-68
2022/10/01 10:32:27;;;;;;;3.70;2.38;;;;;;;9.98;100.00;98285.78;5022112;28;20835;-71
2022/10/01 10:34:57;;;;;;;6.63;3.25;;;;;;;10.02;100.00;98278.91;5021112;28;20145;-67
2022/10/01 10:37:29;;;;;;;4.88;2.33;;;;;;;10.06;100.00;98272.03;5020911;28;20078;-66
2022/10/01 10:39:57;;;;;;;4.85;2.00;;;;;;;9.99;100.00;98253.16;5025056;28;20033;-67
2022/10/01 10:42:24;;;;;;;6.68;2.25;;;;;;;10.03;100.00;98253.53;5024463;28;20033;-67
2022/10/01 10:44:52;;;;;;;2.95;1.83;;;;;;;10.17;100.00;98265.16;5027669;28;20021;-72
2022/10/01 10:47:20;;;;;;;4.18;1.88;;;;;;;10.15;100.00;98259.13;5025237;28;20685;-74
2022/10/01 10:50:29;;;;;;;2.22;1.40;;;;;;;10.19;100.00;98246.81;5026033;28;20033;-72
2022/10/01 10:52:55;;;;;;;1.95;1.40;;;;;;;10.35;100.00;98267.16;4993367;28;20038;-68
2022/10/01 10:55:29;;;;;;;2.08;1.17;;;;;;;10.36;100.00;98252.63;5024821;28;20029;-70
2022/10/01 10:57:54;;;;;;;1.92;1.08;;;;;;;10.50;100.00;98238.78;5021942;28;20112;-71
2022/10/01 11:00:23;;;;;;;2.05;1.02;;;;;;;10.62;100.00;98252.47;5040814;28;20443;-66
2022/10/01 11:02:56;;;;;;;3.55;1.42;;;;;;;10.69;100.00;98249.75;5028063;28;20033;-70
2022/10/01 11:05:24;;;;;;;5.55;1.75;;;;;;;10.74;100.00;98258.84;5020825;28;20026;-70
2022/10/01 11:07:55;;;;;;;6.23;1.67;;;;;;;10.73;100.00;98251.75;5019576;28;20068;-68
2022/10/01 11:10:23;;;;;;;2.60;1.60;;;;;;;10.68;100.00;98248.88;5026834;28;20036;-68
2022/10/01 11:13:33;;;;;;;2.60;1.50;;;;;;;10.67;100.00;98238.28;5031531;28;20064;-69
2022/10/01 11:16:07;;;;;;;5.05;1.42;;;;;;;10.68;100.00;98251.59;5013790;28;20111;-69
2022/10/01 11:18:48;;;;;;;2.50;1.50;;;;;;;10.70;100.00;98254.91;5029944;28;20403;-70
2022/10/01 11:21:32;;;;;;;1.63;0.93;;;;;;;10.77;100.00;98248.63;5026780;28;20589;-72
2022/10/01 11:24:20;;;;;;;2.45;1.15;;;;;;;10.85;100.00;98254.63;5030875;28;20061;-71
2022/10/01 11:27:00;;;;;;;2.63;1.27;;;;;;;10.77;100.00;98237.78;5031228;28;20838;-78
2022/10/01 11:29:32;;;;;;;5.30;2.00;;;;;;;10.91;100.00;98248.31;5017262;28;20480;-75
2022/10/01 11:32:01;;;;;;;4.30;2.03;;;;;;;10.96;100.00;98258.50;5027294;28;20033;-71
2022/10/01 11:34:49;;;;;;;2.88;1.52;;;;;;;10.91;100.00;98266.44;5034012;28;20018;-73
2022/10/01 11:37:27;;;;;;;2.55;1.42;;;;;;;10.91;100.00;98255.63;5032012;28;20033;-68
2022/10/01 11:39:57;;;;;;;3.15;1.60;;;;;;;10.84;100.00;98255.66;5028504;28;20030;-68
2022/10/01 11:42:33;;;;;;;2.88;1.80;;;;;;;10.90;100.00;98259.38;5029190;28;20071;-69
2022/10/01 11:45:30;;;;;;;3.97;1.38;;;;;;;10.94;100.00;98266.00;5031322;28;20026;-71
2022/10/01 11:48:24;;;;;;;2.33;1.58;;;;;;;10.81;100.00;98252.56;5029338;28;20057;-71